Time;durP1;ratioP1;P1;durP2;ratioP2;P2;SDS_P1;SDS_P2;PMS_P1;PMS_P2;Temp;Humidity;BMP_temperature;BMP_pressure;BME280_temperature;BME280_humidity;BME280_pressure;Samples;Min_cycle;Max_cycle;Signal;HPM_P1;HPM_P2
2022/11/28 00:00:26;;;;;;;10.30;5.00;;;9.10;99.90;;;;;;5095322;28;20383;-67
2022/11/28 00:02:52;;;;;;;12.43;4.38;;;9.00;99.90;;;;;;5095849;28;20024;-71
2022/11/28 00:05:18;;;;;;;10.43;4.15;;;9.00;99.90;;;;;;5096530;28;20105;-71
2022/11/28 00:07:44;;;;;;;6.78;4.10;;;9.10;99.90;;;;;;5094618;28;20035;-71
2022/11/28 00:10:10;;;;;;;8.85;4.05;;;9.10;99.90;;;;;;5095883;28;20392;-73
2022/11/28 00:12:36;;;;;;;8.05;3.80;;;9.10;99.90;;;;;;5095887;28;20020;-71
2022/11/28 00:15:03;;;;;;;7.35;4.15;;;9.00;99.90;;;;;;5095740;28;20024;-71
2022/11/28 00:17:29;;;;;;;9.85;4.65;;;9.10;99.90;;;;;;5094528;28;20078;-72
2022/11/28 00:19:55;;;;;;;6.07;3.85;;;9.00;99.90;;;;;;5095673;28;20040;-71
2022/11/28 00:22:21;;;;;;;14.35;3.42;;;9.00;99.90;;;;;;5095532;28;20016;-67
2022/11/28 00:24:46;;;;;;;10.23;4.18;;;9.00;99.90;;;;;;5095719;28;20027;-71
2022/11/28 00:27:12;;;;;;;5.30;3.90;;;9.00;99.90;;;;;;5095458;28;20610;-73
2022/11/28 00:29:39;;;;;;;7.43;4.53;;;8.90;99.90;;;;;;5095412;28;20070;-71
2022/11/28 00:32:05;;;;;;;10.32;4.93;;;8.90;99.90;;;;;;5094571;28;20476;-66
2022/11/28 00:34:31;;;;;;;7.60;3.10;;;9.00;99.90;;;;;;5095463;28;20074;-71
2022/11/28 00:36:57;;;;;;;7.03;4.03;;;8.90;99.90;;;;;;5095603;28;20464;-71
2022/11/28 00:39:22;;;;;;;7.93;4.55;;;9.10;99.90;;;;;;5093060;28;20024;-71
2022/11/28 00:41:48;;;;;;;7.15;4.03;;;9.00;99.90;;;;;;5095397;28;20451;-71
2022/11/28 00:44:14;;;;;;;7.60;4.32;;;8.90;99.90;;;;;;5095180;28;20484;-66
2022/11/28 00:46:40;;;;;;;7.15;4.05;;;8.80;99.90;;;;;;5094837;28;20038;-71
2022/11/28 00:49:06;;;;;;;8.02;4.70;;;8.80;99.90;;;;;;5095178;28;20035;-72
2022/11/28 00:51:33;;;;;;;13.30;4.97;;;8.70;99.90;;;;;;5095107;28;20036;-70
2022/11/28 00:54:03;;;;;;;6.18;4.65;;;8.70;99.90;;;;;;5095061;28;20024;-66
2022/11/28 00:56:32;;;;;;;7.70;4.40;;;8.70;99.90;;;;;;5094941;28;20071;-71
2022/11/28 00:58:58;;;;;;;7.07;5.00;;;8.70;99.90;;;;;;5095069;28;20417;-71
2022/11/28 01:01:28;;;;;;;7.53;4.25;;;8.70;99.90;;;;;;5094728;28;20036;-71
2022/11/28 01:03:56;;;;;;;9.70;4.93;;;8.60;99.90;;;;;;5095389;28;20107;-71
2022/11/28 01:06:33;;;;;;;6.43;4.38;;;8.50;99.90;;;;;;5095118;28;20503;-71
2022/11/28 01:09:02;;;;;;;9.18;5.10;;;8.40;99.90;;;;;;5093121;28;20032;-70
2022/11/28 01:11:29;;;;;;;12.05;4.97;;;8.50;99.90;;;;;;5095011;28;20027;-71
2022/11/28 01:13:59;;;;;;;9.57;4.75;;;8.40;99.90;;;;;;5093146;28;20131;-65
2022/11/28 01:16:26;;;;;;;7.22;5.03;;;8.50;99.90;;;;;;5093301;28;20044;-71
2022/11/28 01:18:52;;;;;;;8.25;5.47;;;8.50;99.90;;;;;;5094537;28;20111;-71
2022/11/28 01:21:19;;;;;;;12.25;5.30;;;8.50;99.90;;;;;;5094511;28;20032;-71
2022/11/28 01:23:45;;;;;;;8.00;5.25;;;8.50;99.90;;;;;;5094454;28;20036;-71
2022/11/28 01:26:16;;;;;;;6.82;5.03;;;8.60;99.90;;;;;;5094780;28;20028;-71
2022/11/28 01:28:42;;;;;;;7.53;5.20;;;8.70;99.90;;;;;;5094007;28;20056;-72
2022/11/28 01:31:12;;;;;;;8.15;5.13;;;8.70;99.90;;;;;;5094445;28;20392;-70
2022/11/28 01:33:38;;;;;;;9.30;5.63;;;8.70;99.90;;;;;;5094410;28;20038;-71
2022/11/28 01:36:05;;;;;;;8.00;5.25;;;8.60;99.90;;;;;;5093975;28;20024;-65
2022/11/28 01:38:31;;;;;;;10.27;6.07;;;8.50;99.90;;;;;;5094123;28;20028;-67
2022/11/28 01:40:57;;;;;;;7.82;4.93;;;8.50;99.90;;;;;;5093120;28;20115;-66
2022/11/28 01:43:23;;;;;;;10.02;5.90;;;8.60;99.90;;;;;;5093939;28;20111;-65
2022/11/28 01:45:50;;;;;;;9.85;6.07;;;8.40;99.90;;;;;;5094447;28;20107;-67
2022/11/28 01:48:27;;;;;;;9.60;5.90;;;8.60;99.90;;;;;;5093853;28;20028;-71
2022/11/28 01:50:59;;;;;;;12.50;6.07;;;8.50;99.90;;;;;;5094287;28;20376;-72
2022/11/28 01:53:29;;;;;;;7.83;5.77;;;8.70;99.90;;;;;;5093978;28;20050;-71
2022/11/28 01:55:59;;;;;;;11.40;5.85;;;8.70;99.90;;;;;;5093868;28;20492;-71
2022/11/28 01:58:26;;;;;;;7.40;5.18;;;8.60;99.90;;;;;;5093726;28;20044;-71
2022/11/28 02:00:52;;;;;;;10.50;6.07;;;8.50;99.90;;;;;;5093694;28;20032;-65
2022/11/28 02:03:32;;;;;;;8.68;5.50;;;8.70;99.90;;;;;;5092479;28;20031;-71
2022/11/28 02:05:58;;;;;;;11.05;5.75;;;8.60;99.90;;;;;;5092679;28;20484;-65
2022/11/28 02:08:24;;;;;;;12.50;5.47;;;8.60;99.90;;;;;;5093497;28;20030;-71
2022/11/28 02:11:34;;;;;;;8.25;5.72;;;8.60;99.90;;;;;;5094018;28;20058;-72
2022/11/28 02:14:19;;;;;;;8.77;6.05;;;8.60;99.90;;;;;;5083963;28;20043;-71
2022/11/28 02:16:56;;;;;;;7.68;5.07;;;8.60;99.90;;;;;;5093452;28;20468;-71
2022/11/28 02:20:13;;;;;;;9.13;5.90;;;8.60;99.90;;;;;;5093240;28;20040;-71
2022/11/28 02:23:06;;;;;;;11.73;6.03;;;8.70;99.90;;;;;;5070074;28;20452;-66
2022/11/28 02:25:53;;;;;;;9.00;6.57;;;8.70;99.90;;;;;;5093260;28;20099;-71
2022/11/28 02:28:37;;;;;;;9.75;5.88;;;8.80;99.90;;;;;;5093255;28;20027;-72
2022/11/28 02:31:15;;;;;;;12.20;6.53;;;8.60;99.90;;;;;;5093223;28;20042;-72
2022/11/28 02:33:46;;;;;;;10.98;6.40;;;8.60;99.90;;;;;;5093327;28;20525;-71
2022/11/28 02:36:19;;;;;;;9.38;6.30;;;8.60;99.90;;;;;;5092953;28;20098;-71
2022/11/28 02:38:51;;;;;;;11.60;6.72;;;8.50;99.90;;;;;;5093189;28;20035;-66
2022/11/28 02:41:27;;;;;;;11.23;6.70;;;8.50;99.90;;;;;;5091845;28;20024;-67
2022/11/28 02:43:59;;;;;;;8.98;5.82;;;8.60;99.90;;;;;;5093324;28;20043;-66
2022/11/28 02:46:36;;;;;;;9.52;6.60;;;8.60;99.90;;;;;;5092859;28;20034;-68
2022/11/28 02:49:05;;;;;;;9.75;6.32;;;8.60;99.90;;;;;;5092974;28;20423;-66
2022/11/28 02:51:59;;;;;;;10.10;6.25;;;8.80;99.90;;;;;;5092660;28;20028;-66
2022/11/28 02:54:26;;;;;;;9.70;6.60;;;8.80;99.90;;;;;;5093004;28;20028;-72
2022/11/28 02:56:54;;;;;;;8.60;6.63;;;8.90;99.90;;;;;;5092683;28;20116;-72
2022/11/28 02:59:25;;;;;;;10.48;6.63;;;9.00;99.90;;;;;;5092665;28;20107;-71
2022/11/28 03:01:51;;;;;;;12.38;6.28;;;9.00;99.90;;;;;;5092908;28;20031;-65
2022/11/28 03:04:34;;;;;;;10.13;6.43;;;9.00;99.90;;;;;;5092241;28;20479;-65
2022/11/28 03:07:06;;;;;;;9.60;6.53;;;9.10;99.90;;;;;;5092796;28;20032;-71
2022/11/28 03:10:02;;;;;;;8.63;6.40;;;8.90;99.90;;;;;;5091559;28;20040;-66
2022/11/28 03:12:42;;;;;;;9.60;6.50;;;8.90;99.90;;;;;;5092830;28;20077;-71
2022/11/28 03:15:11;;;;;;;7.13;6.10;;;8.90;99.90;;;;;;5092547;28;20036;-66
2022/11/28 03:18:04;;;;;;;11.57;6.30;;;8.80;99.90;;;;;;5092092;28;20020;-67
2022/11/28 03:20:53;;;;;;;10.07;7.75;;;8.80;99.90;;;;;;5091250;28;20044;-67
2022/11/28 03:23:25;;;;;;;8.27;6.65;;;8.80;99.90;;;;;;5092643;28;20093;-71
2022/11/28 03:26:08;;;;;;;9.43;7.22;;;8.80;99.90;;;;;;5091908;28;20040;-71
2022/11/28 03:28:55;;;;;;;9.80;6.85;;;8.80;99.90;;;;;;5091128;28;20904;-66
2022/11/28 03:31:27;;;;;;;11.13;7.22;;;8.80;99.90;;;;;;5092291;28;20052;-71
2022/11/28 03:33:58;;;;;;;10.77;7.18;;;8.80;99.90;;;;;;5092624;28;20036;-72
2022/11/28 03:36:53;;;;;;;9.50;7.00;;;8.70;99.90;;;;;;5091061;28;20016;-67
2022/11/28 03:39:23;;;;;;;9.57;6.80;;;8.80;99.90;;;;;;5082624;28;20051;-71
2022/11/28 03:42:12;;;;;;;10.15;7.40;;;8.90;99.90;;;;;;5091109;28;20063;-72
2022/11/28 03:44:46;;;;;;;9.23;7.18;;;8.90;99.90;;;;;;5092250;28;20042;-72
2022/11/28 03:47:12;;;;;;;11.85;7.38;;;9.30;99.90;;;;;;5092161;28;20035;-71
2022/11/28 03:49:41;;;;;;;12.52;7.55;;;9.30;99.90;;;;;;5092061;28;20024;-67
2022/11/28 03:52:17;;;;;;;9.00;7.28;;;9.20;99.90;;;;;;5078624;28;20066;-71
2022/11/28 03:54:49;;;;;;;11.45;7.72;;;9.00;99.90;;;;;;5073161;28;20107;-66
2022/11/28 03:57:44;;;;;;;10.40;7.95;;;9.00;99.90;;;;;;5077833;28;20089;-72
2022/11/28 04:00:12;;;;;;;17.10;8.35;;;9.20;99.90;;;;;;5081910;28;20084;-72
2022/11/28 04:03:08;;;;;;;10.57;7.20;;;9.10;99.90;;;;;;5086073;28;20034;-69
2022/11/28 04:05:52;;;;;;;10.85;7.65;;;9.00;99.90;;;;;;5091680;28;20051;-72
2022/11/28 04:08:24;;;;;;;10.07;8.13;;;9.20;99.90;;;;;;5091587;28;20028;-72
2022/11/28 04:11:13;;;;;;;12.68;7.88;;;9.10;99.90;;;;;;5092070;28;20353;-71
2022/11/28 04:14:03;;;;;;;9.63;7.03;;;8.90;99.90;;;;;;5078560;28;20498;-71
2022/11/28 04:16:42;;;;;;;10.82;7.93;;;8.80;99.90;;;;;;5095110;28;20028;-71
2022/11/28 04:19:22;;;;;;;12.15;8.60;;;8.80;99.90;;;;;;5094986;28;20089;-67
2022/11/28 04:22:05;;;;;;;12.05;9.00;;;8.90;99.90;;;;;;5094987;28;20035;-66
2022/11/28 04:24:37;;;;;;;10.20;8.52;;;8.90;99.90;;;;;;5095870;28;20349;-66
2022/11/28 04:27:05;;;;;;;;;;;8.80;99.90;;;;;;5081429;28;20027;-71
2022/11/28 04:29:37;;;;;;;11.82;8.85;;;8.70;99.90;;;;;;5095322;28;19908;-67
2022/11/28 04:32:04;;;;;;;11.77;8.57;;;8.80;99.90;;;;;;5095477;28;20383;-65
2022/11/28 04:34:32;;;;;;;11.80;9.50;;;8.80;99.90;;;;;;5095573;28;20028;-65
2022/11/28 04:37:00;;;;;;;11.95;9.43;;;8.80;99.90;;;;;;5095174;28;20028;-66
2022/11/28 04:39:27;;;;;;;12.38;9.50;;;8.90;99.90;;;;;;5095045;28;20063;-71
2022/11/28 04:41:58;;;;;;;11.98;9.68;;;8.70;99.90;;;;;;5095362;28;20028;-71
2022/11/28 04:44:47;;;;;;;14.77;9.93;;;8.80;99.90;;;;;;5095466;28;20077;-72
2022/11/28 04:47:14;;;;;;;18.63;10.70;;;8.90;99.90;;;;;;5095080;28;20044;-71
2022/11/28 04:49:40;;;;;;;17.45;11.57;;;8.70;99.90;;;;;;5094276;28;20035;-66
2022/11/28 04:52:19;;;;;;;17.50;11.93;;;8.80;99.90;;;;;;5094351;28;20024;-72
2022/11/28 04:54:54;;;;;;;16.42;11.38;;;8.90;99.90;;;;;;5095145;28;20442;-65
2022/11/28 04:57:32;;;;;;;21.65;12.52;;;8.80;99.90;;;;;;5095088;28;20020;-71
2022/11/28 05:00:01;;;;;;;21.50;12.02;;;8.70;99.90;;;;;;5086378;28;20104;-71
2022/11/28 05:02:28;;;;;;;18.65;11.85;;;8.70;99.90;;;;;;5089874;28;20066;-68
2022/11/28 05:04:54;;;;;;;22.40;13.55;;;8.80;99.90;;;;;;5095092;28;20428;-70
2022/11/28 05:07:20;;;;;;;23.58;14.68;;;8.80;99.90;;;;;;5095162;28;20030;-71
2022/11/28 05:09:47;;;;;;;26.00;14.25;;;8.80;99.90;;;;;;5094067;28;20024;-66
2022/11/28 05:12:12;;;;;;;28.10;15.77;;;8.80;99.90;;;;;;5094508;28;20085;-66
2022/11/28 05:14:39;;;;;;;26.33;16.83;;;8.70;99.90;;;;;;5094516;28;20024;-71
2022/11/28 05:17:06;;;;;;;29.10;15.73;;;8.80;99.90;;;;;;5094894;28;20413;-72
2022/11/28 05:19:32;;;;;;;24.95;15.57;;;8.90;99.90;;;;;;5094144;28;20499;-71
2022/11/28 05:21:58;;;;;;;27.05;16.15;;;8.80;99.90;;;;;;5094488;28;20426;-72
2022/11/28 05:24:24;;;;;;;27.92;16.10;;;8.80;99.90;;;;;;5094752;28;20036;-65
2022/11/28 05:26:49;;;;;;;26.70;16.13;;;8.90;99.90;;;;;;5094200;28;20040;-72
2022/11/28 05:29:16;;;;;;;26.52;17.02;;;9.00;99.90;;;;;;5094227;28;20028;-72
2022/11/28 05:31:41;;;;;;;30.80;17.83;;;9.20;99.90;;;;;;5094467;28;20024;-66
2022/11/28 05:34:07;;;;;;;30.15;17.58;;;9.10;99.90;;;;;;5092681;28;20035;-65
2022/11/28 05:36:33;;;;;;;26.48;16.98;;;9.10;99.90;;;;;;5093979;28;20103;-72
2022/11/28 05:38:59;;;;;;;33.90;19.00;;;9.20;99.90;;;;;;5093993;28;20071;-66
2022/11/28 05:41:30;;;;;;;25.25;15.30;;;9.10;99.90;;;;;;5094203;28;20040;-67
2022/11/28 05:43:58;;;;;;;26.03;16.93;;;8.90;99.90;;;;;;5094098;28;20028;-66
2022/11/28 05:46:25;;;;;;;32.60;17.73;;;9.00;99.90;;;;;;5094279;28;20305;-66
2022/11/28 05:48:50;;;;;;;34.25;19.27;;;9.10;99.90;;;;;;5093700;28;20072;-66
2022/11/28 05:51:16;;;;;;;32.85;19.52;;;9.00;99.90;;;;;;5093986;28;20059;-68
2022/11/28 05:53:42;;;;;;;31.55;20.15;;;9.10;99.90;;;;;;5093873;28;20031;-67
2022/11/28 05:56:11;;;;;;;29.02;18.88;;;9.10;99.90;;;;;;5094116;28;20527;-66
2022/11/28 05:58:37;;;;;;;32.47;20.38;;;9.00;99.90;;;;;;5093730;28;20040;-67
2022/11/28 06:01:11;;;;;;;29.13;18.98;;;9.10;99.90;;;;;;5079561;28;20107;-68
2022/11/28 06:03:37;;;;;;;36.25;21.67;;;9.00;99.90;;;;;;5093842;28;20024;-69
2022/11/28 06:06:03;;;;;;;36.83;21.85;;;9.10;99.90;;;;;;5093406;28;20506;-68
2022/11/28 06:08:29;;;;;;;32.80;22.30;;;9.10;99.90;;;;;;5093921;28;20028;-65
2022/11/28 06:10:56;;;;;;;37.60;22.85;;;9.10;99.90;;;;;;5093273;28;20119;-68
2022/11/28 06:13:22;;;;;;;34.45;23.80;;;9.00;99.90;;;;;;5093541;28;20028;-66
2022/11/28 06:15:48;;;;;;;37.47;24.13;;;8.90;99.90;;;;;;5093642;28;20036;-65
2022/11/28 06:18:14;;;;;;;35.47;23.67;;;9.10;99.90;;;;;;5093689;28;20034;-66
2022/11/28 06:20:40;;;;;;;40.58;25.15;;;9.10;99.90;;;;;;5093158;28;20040;-66
2022/11/28 06:23:06;;;;;;;35.63;21.38;;;9.20;99.90;;;;;;5093374;28;20028;-66
2022/11/28 06:25:31;;;;;;;39.53;25.88;;;9.00;99.90;;;;;;5093287;28;20072;-66
2022/11/28 06:27:57;;;;;;;40.42;26.00;;;9.00;99.90;;;;;;5093289;28;20019;-66
2022/11/28 06:30:23;;;;;;;38.72;26.02;;;9.10;99.90;;;;;;5093492;28;20028;-67
2022/11/28 06:32:49;;;;;;;38.80;25.63;;;9.30;99.90;;;;;;5093148;28;20390;-66
2022/11/28 06:35:14;;;;;;;41.28;26.73;;;9.40;99.90;;;;;;5093595;28;20102;-68
2022/11/28 06:37:40;;;;;;;43.10;27.92;;;9.40;99.90;;;;;;5092471;28;20031;-66
2022/11/28 06:40:06;;;;;;;43.22;27.05;;;9.20;99.90;;;;;;5092785;28;20040;-66
2022/11/28 06:42:35;;;;;;;45.03;27.02;;;9.30;99.90;;;;;;5093519;28;20032;-66
2022/11/28 06:45:02;;;;;;;47.35;28.52;;;9.40;99.90;;;;;;5092837;28;20476;-67
2022/11/28 06:47:27;;;;;;;41.70;27.20;;;9.50;99.90;;;;;;5092621;28;20028;-66
2022/11/28 06:49:53;;;;;;;48.05;28.50;;;9.50;99.90;;;;;;5093094;28;20038;-66
2022/11/28 06:52:19;;;;;;;47.70;29.60;;;9.30;99.90;;;;;;5092988;28;20036;-66
2022/11/28 06:54:44;;;;;;;49.20;29.17;;;9.40;99.90;;;;;;5093077;28;20028;-67
2022/11/28 06:57:11;;;;;;;48.13;30.65;;;9.30;99.90;;;;;;5092988;28;20016;-67
2022/11/28 06:59:36;;;;;;;49.58;31.83;;;9.40;99.90;;;;;;5087171;28;20047;-67
2022/11/28 07:02:02;;;;;;;52.55;31.42;;;9.30;99.90;;;;;;5083837;28;20033;-66
2022/11/28 07:04:28;;;;;;;52.92;32.03;;;9.40;99.90;;;;;;5092922;28;20016;-67
2022/11/28 07:06:54;;;;;;;53.15;30.80;;;9.50;99.90;;;;;;5092900;28;20104;-68
2022/11/28 07:09:19;;;;;;;54.58;33.75;;;9.40;99.90;;;;;;5092591;28;20020;-66
2022/11/28 07:11:45;;;;;;;54.45;31.25;;;9.30;99.90;;;;;;5092711;28;20032;-66
2022/11/28 07:14:11;;;;;;;56.10;33.63;;;9.30;99.90;;;;;;5091656;28;20020;-66
2022/11/28 07:16:37;;;;;;;49.03;30.98;;;9.30;99.90;;;;;;5092025;28;20024;-67
2022/11/28 07:19:04;;;;;;;58.63;33.80;;;9.30;99.90;;;;;;5071922;28;20024;-67
2022/11/28 07:21:30;;;;;;;63.05;33.65;;;9.50;99.90;;;;;;5083467;28;20115;-66
2022/11/28 07:23:58;;;;;;;54.50;32.58;;;9.30;99.90;;;;;;5091608;28;20032;-66
2022/11/28 07:26:24;;;;;;;57.40;32.55;;;9.30;99.90;;;;;;5092898;28;20024;-67
2022/11/28 07:28:50;;;;;;;59.15;34.50;;;9.30;99.90;;;;;;5101663;28;20044;-67
2022/11/28 07:31:20;;;;;;;63.33;33.10;;;9.30;99.90;;;;;;5101883;28;20111;-68
2022/11/28 07:33:48;;;;;;;56.70;33.33;;;9.40;99.90;;;;;;5093723;28;20028;-68
2022/11/28 07:36:16;;;;;;;56.10;34.60;;;9.40;99.90;;;;;;5094504;28;20039;-67
2022/11/28 07:38:42;;;;;;;53.85;33.30;;;9.30;99.90;;;;;;5091764;28;20035;-66
2022/11/28 07:41:12;;;;;;;58.80;34.33;;;9.40;99.90;;;;;;5103498;28;20031;-70
2022/11/28 07:43:39;;;;;;;58.75;34.92;;;9.40;99.90;;;;;;5096758;28;20021;-66
2022/11/28 07:46:07;;;;;;;56.28;34.95;;;9.30;99.90;;;;;;5092521;28;20399;-66
2022/11/28 07:48:34;;;;;;;57.20;36.47;;;9.30;99.90;;;;;;5092752;28;20043;-67
2022/11/28 07:51:05;;;;;;;52.15;31.48;;;9.40;99.90;;;;;;5107876;28;20414;-67
2022/11/28 07:53:30;;;;;;;61.97;32.95;;;9.40;99.90;;;;;;5105557;28;20157;-66
2022/11/28 07:56:02;;;;;;;52.33;32.42;;;9.40;99.90;;;;;;5098144;28;20060;-66
2022/11/28 07:58:28;;;;;;;57.75;33.35;;;9.50;99.90;;;;;;5095230;28;20050;-67
2022/11/28 08:00:54;;;;;;;55.33;32.00;;;9.50;99.90;;;;;;5083168;28;20036;-66
2022/11/28 08:03:20;;;;;;;54.00;33.08;;;9.40;99.90;;;;;;5111599;28;20019;-66
2022/11/28 08:05:48;;;;;;;62.85;33.97;;;9.40;99.90;;;;;;5109755;28;20387;-67
2022/11/28 08:08:18;;;;;;;55.25;32.70;;;9.60;99.90;;;;;;5101477;28;20031;-66
2022/11/28 08:10:45;;;;;;;51.90;31.50;;;9.60;99.90;;;;;;5098718;28;20040;-66
2022/11/28 08:13:12;;;;;;;53.35;32.50;;;9.50;99.90;;;;;;5097825;28;20023;-67
2022/11/28 08:15:39;;;;;;;50.65;28.33;;;9.50;99.90;;;;;;5111488;27;20027;-66
2022/11/28 08:18:05;;;;;;;58.63;31.48;;;9.40;99.90;;;;;;5095354;28;20024;-66
2022/11/28 08:20:31;;;;;;;56.25;34.67;;;9.40;99.90;;;;;;5097789;28;20048;-66
2022/11/28 08:22:57;;;;;;;50.78;30.73;;;9.60;99.90;;;;;;5094797;28;20062;-71
2022/11/28 08:25:23;;;;;;;46.60;29.73;;;9.40;99.90;;;;;;5100268;28;20026;-66
2022/11/28 08:27:48;;;;;;;54.00;31.25;;;9.40;99.90;;;;;;5098186;28;20434;-67
2022/11/28 08:30:14;;;;;;;54.95;33.20;;;9.50;99.90;;;;;;5094271;28;20505;-66
2022/11/28 08:32:40;;;;;;;50.35;31.23;;;9.50;99.90;;;;;;5095126;28;20016;-71
2022/11/28 08:35:06;;;;;;;54.55;31.63;;;9.60;99.90;;;;;;5095437;28;20023;-66
2022/11/28 08:37:32;;;;;;;51.30;30.45;;;9.60;99.90;;;;;;5094239;28;20089;-69
2022/11/28 08:39:57;;;;;;;49.35;29.40;;;9.50;99.90;;;;;;5095226;28;20042;-66
2022/11/28 08:42:23;;;;;;;55.22;30.42;;;9.50;99.90;;;;;;5094304;28;20020;-71
2022/11/28 08:44:49;;;;;;;42.65;28.38;;;9.50;99.90;;;;;;5094801;28;20058;-70
2022/11/28 08:47:14;;;;;;;44.08;27.70;;;9.50;99.90;;;;;;5094898;28;20035;-69
2022/11/28 08:49:40;;;;;;;45.53;27.10;;;9.50;99.90;;;;;;5095083;28;20034;-66
2022/11/28 08:52:06;;;;;;;42.00;23.40;;;9.50;99.90;;;;;;5095306;28;20051;-70
2022/11/28 08:54:32;;;;;;;35.92;24.45;;;9.50;99.90;;;;;;5094831;28;20112;-70
2022/11/28 08:56:58;;;;;;;42.80;25.65;;;9.50;99.90;;;;;;5094919;28;20024;-69
2022/11/28 08:59:24;;;;;;;37.55;23.98;;;9.50;99.90;;;;;;5090771;28;20385;-71
2022/11/28 09:01:53;;;;;;;41.47;23.85;;;9.70;99.90;;;;;;5084134;28;20028;-72
2022/11/28 09:04:20;;;;;;;36.05;23.40;;;9.80;99.90;;;;;;5094722;28;20373;-72
2022/11/28 09:06:45;;;;;;;38.03;23.00;;;9.80;99.90;;;;;;5091627;28;20773;-70
2022/11/28 09:09:11;;;;;;;39.13;23.52;;;9.70;99.90;;;;;;5096040;28;20024;-67
2022/11/28 09:11:37;;;;;;;36.00;21.90;;;9.80;99.90;;;;;;5103287;28;20024;-72
2022/11/28 09:14:03;;;;;;;42.20;23.45;;;9.80;99.90;;;;;;5084293;28;20080;-72
2022/11/28 09:16:29;;;;;;;40.30;22.05;;;9.80;99.90;;;;;;5099280;28;20410;-66
2022/11/28 09:18:58;;;;;;;47.28;23.40;;;9.80;99.90;;;;;;5096830;28;20032;-66
2022/11/28 09:21:24;;;;;;;39.17;22.60;;;9.80;99.90;;;;;;5096016;28;20051;-71
2022/11/28 09:23:50;;;;;;;35.10;19.63;;;9.80;99.90;;;;;;5098923;28;20480;-71
2022/11/28 09:26:20;;;;;;;34.22;19.90;;;9.60;99.90;;;;;;5106818;27;20031;-64
2022/11/28 09:28:46;;;;;;;32.25;20.00;;;9.60;99.90;;;;;;5098316;28;20027;-71
2022/11/28 09:31:14;;;;;;;31.77;18.80;;;9.70;99.90;;;;;;5096428;28;20036;-73
2022/11/28 09:33:40;;;;;;;35.85;20.77;;;9.70;99.90;;;;;;5094123;28;20473;-67
2022/11/28 09:36:08;;;;;;;35.63;21.00;;;9.90;99.90;;;;;;5100956;28;20549;-67
2022/11/28 09:38:34;;;;;;;31.52;19.50;;;9.90;99.90;;;;;;5099956;28;20028;-67
2022/11/28 09:41:02;;;;;;;33.20;18.58;;;9.80;99.90;;;;;;5092741;28;20042;-72
2022/11/28 09:43:36;;;;;;;33.33;17.50;;;9.80;99.90;;;;;;5091557;28;20020;-67
2022/11/28 09:46:08;;;;;;;40.50;21.85;;;9.80;99.90;;;;;;5083014;28;20028;-67
2022/11/28 09:48:56;;;;;;;32.90;18.92;;;9.80;99.90;;;;;;5094195;28;20411;-73
2022/11/28 09:51:46;;;;;;;34.42;19.15;;;9.80;99.90;;;;;;5084320;28;20496;-70
2022/11/28 09:54:33;;;;;;;43.50;20.15;;;9.80;99.90;;;;;;5093709;28;20020;-67
2022/11/28 09:57:00;;;;;;;31.10;17.85;;;9.90;99.90;;;;;;5080131;28;20024;-69
2022/11/28 09:59:28;;;;;;;32.30;17.45;;;9.90;99.90;;;;;;5089253;28;20029;-69
2022/11/28 10:01:57;;;;;;;34.22;16.67;;;10.00;99.90;;;;;;5084321;28;20098;-67
2022/11/28 10:04:35;;;;;;;36.03;16.70;;;10.30;99.90;;;;;;5093571;28;20023;-68
2022/11/28 10:07:21;;;;;;;35.95;16.17;;;10.20;99.90;;;;;;5093829;28;20028;-73
2022/11/28 10:10:13;;;;;;;32.63;17.35;;;10.20;99.90;;;;;;5091732;28;20036;-69
2022/11/28 10:12:49;;;;;;;36.28;16.38;;;10.30;99.90;;;;;;5094591;28;20020;-70
2022/11/28 10:15:31;;;;;;;39.90;18.77;;;10.10;99.90;;;;;;5095087;28;20107;-67
2022/11/28 10:18:02;;;;;;;27.92;15.73;;;10.10;99.90;;;;;;5098375;28;20140;-68
2022/11/28 10:20:36;;;;;;;28.30;14.30;;;10.20;99.90;;;;;;5095495;28;20035;-67
2022/11/28 10:23:11;;;;;;;27.10;17.00;;;10.10;99.90;;;;;;5093554;28;20036;-67
2022/11/28 10:25:47;;;;;;;28.27;15.73;;;10.20;99.90;;;;;;5096414;28;20036;-67
2022/11/28 10:28:45;;;;;;;26.42;15.35;;;10.40;99.90;;;;;;5099862;28;20069;-67
2022/11/28 10:31:24;;;;;;;34.20;16.35;;;10.20;99.90;;;;;;5070095;28;20059;-71
2022/11/28 10:33:53;;;;;;;32.72;14.65;;;10.20;99.90;;;;;;5093671;28;20076;-72
2022/11/28 10:36:31;;;;;;;33.38;17.25;;;10.10;99.90;;;;;;5095667;28;20495;-70
2022/11/28 10:39:04;;;;;;;29.50;16.52;;;10.30;99.90;;;;;;5093078;28;20024;-72
2022/11/28 10:41:39;;;;;;;33.10;18.45;;;10.30;99.90;;;;;;5089250;28;20039;-67
2022/11/28 10:44:43;;;;;;;41.75;16.25;;;10.50;99.90;;;;;;5093983;28;20046;-71
2022/11/28 10:47:31;;;;;;;32.83;15.60;;;10.60;99.90;;;;;;5060616;28;20044;-67
2022/11/28 10:50:06;;;;;;;30.90;17.48;;;10.30;99.90;;;;;;5056894;28;20140;-67
2022/11/28 10:52:45;;;;;;;29.30;16.08;;;10.30;99.90;;;;;;5097837;28;20032;-70
2022/11/28 10:55:17;;;;;;;38.10;16.23;;;10.40;99.90;;;;;;5095856;28;20078;-71
2022/11/28 10:58:01;;;;;;;36.17;17.30;;;10.40;99.90;;;;;;5096079;28;20532;-67
2022/11/28 11:00:27;;;;;;;32.75;18.02;;;10.50;99.90;;;;;;5104014;28;20471;-67
2022/11/28 11:02:55;;;;;;;34.40;17.55;;;10.60;99.90;;;;;;5104026;28;20043;-73
2022/11/28 11:05:25;;;;;;;35.08;17.23;;;10.70;99.90;;;;;;5103444;28;20874;-67
2022/11/28 11:07:57;;;;;;;30.38;16.52;;;10.50;99.90;;;;;;5098671;28;20024;-68
2022/11/28 11:10:23;;;;;;;;;;;10.60;99.90;;;;;;5083837;28;20388;-68
2022/11/28 11:12:51;;;;;;;39.13;15.00;;;10.90;99.90;;;;;;5097227;28;19904;-66
2022/11/28 11:15:44;;;;;;;42.45;16.25;;;10.70;99.90;;;;;;5094583;28;20089;-66
2022/11/28 11:18:28;;;;;;;29.00;15.75;;;11.00;99.90;;;;;;5093113;28;20036;-67
2022/11/28 11:21:15;;;;;;;36.22;15.30;;;11.40;99.90;;;;;;5090852;28;20046;-67
2022/11/28 11:23:42;;;;;;;30.63;14.40;;;11.50;99.90;;;;;;5096598;28;20024;-71
2022/11/28 11:26:26;;;;;;;27.25;13.13;;;11.60;99.90;;;;;;5092892;28;20027;-67
2022/11/28 11:28:52;;;;;;;25.02;11.48;;;11.60;99.90;;;;;;5091041;28;20350;-73
2022/11/28 11:31:28;;;;;;;20.73;11.02;;;11.80;99.90;;;;;;5096252;28;20070;-69
2022/11/28 11:34:06;;;;;;;26.55;12.10;;;11.80;99.90;;;;;;5095101;28;20496;-69
2022/11/28 11:36:35;;;;;;;26.60;10.98;;;12.20;99.90;;;;;;5096305;28;20115;-71
2022/11/28 11:39:22;;;;;;;26.80;11.70;;;12.00;99.90;;;;;;5096054;28;20032;-70
2022/11/28 11:41:50;;;;;;;26.17;10.68;;;12.80;99.90;;;;;;5096066;28;21292;-72
2022/11/28 11:44:24;;;;;;;30.10;11.40;;;13.00;99.90;;;;;;5096025;28;20368;-72
2022/11/28 11:46:54;;;;;;;24.67;11.77;;;12.30;99.90;;;;;;5094637;28;20059;-70
2022/11/28 11:49:34;;;;;;;28.70;13.27;;;12.00;99.90;;;;;;5096107;28;20121;-72
2022/11/28 11:52:14;;;;;;;40.50;13.48;;;12.00;99.90;;;;;;5095386;28;20473;-72
2022/11/28 11:54:55;;;;;;;29.83;13.43;;;11.90;99.90;;;;;;5078144;28;20024;-74
2022/11/28 11:57:27;;;;;;;31.70;13.43;;;11.60;99.90;;;;;;5095770;28;20392;-73
2022/11/28 11:59:57;;;;;;;35.28;14.30;;;11.50;99.90;;;;;;5087707;28;20040;-73
2022/11/28 12:02:36;;;;;;;29.15;13.43;;;11.50;99.90;;;;;;5089936;28;20028;-71
2022/11/28 12:05:09;;;;;;;27.92;12.82;;;11.30;99.90;;;;;;5096057;28;20024;-73
2022/11/28 12:07:59;;;;;;;26.08;14.65;;;11.50;99.90;;;;;;5095321;28;20054;-73
2022/11/28 12:10:30;;;;;;;30.00;15.07;;;11.20;99.90;;;;;;5095729;28;20060;-74
2022/11/28 12:12:57;;;;;;;39.03;15.30;;;11.40;99.90;;;;;;5094294;28;20388;-73
2022/11/28 12:15:54;;;;;;;37.92;15.50;;;11.40;99.90;;;;;;5095668;28;20020;-73
2022/11/28 12:18:30;;;;;;;35.53;16.30;;;11.50;99.90;;;;;;5095634;28;20024;-73
2022/11/28 12:21:12;;;;;;;37.38;16.02;;;11.20;99.90;;;;;;5095399;28;20370;-74
2022/11/28 12:23:42;;;;;;;41.95;17.00;;;11.40;99.90;;;;;;5082603;28;20461;-73
2022/11/28 12:26:36;;;;;;;37.05;15.35;;;11.20;99.90;;;;;;5095680;28;20085;-74
2022/11/28 12:29:21;;;;;;;34.17;16.98;;;11.00;99.90;;;;;;5085218;28;20137;-72
2022/11/28 12:32:14;;;;;;;29.73;15.50;;;11.20;99.90;;;;;;5095589;28;20111;-73
2022/11/28 12:34:48;;;;;;;35.55;16.67;;;11.10;99.90;;;;;;5094114;28;20032;-71
2022/11/28 12:37:41;;;;;;;33.95;14.23;;;11.30;99.90;;;;;;5094691;28;20056;-73
2022/11/28 12:40:17;;;;;;;39.15;14.10;;;11.20;99.90;;;;;;5095207;28;20032;-74
2022/11/28 12:43:20;;;;;;;35.22;15.38;;;11.40;99.90;;;;;;5095027;28;20031;-71
2022/11/28 12:46:13;;;;;;;40.17;15.00;;;11.20;99.90;;;;;;5082824;28;20036;-73
2022/11/28 12:49:14;;;;;;;33.35;14.52;;;11.40;99.90;;;;;;5094934;28;20043;-73
2022/11/28 12:51:51;;;;;;;33.10;14.13;;;11.60;99.90;;;;;;5094849;28;20488;-73
2022/11/28 12:54:44;;;;;;;32.22;13.70;;;11.50;99.90;;;;;;5082516;28;20024;-69
2022/11/28 12:57:32;;;;;;;28.67;13.88;;;11.70;99.90;;;;;;5093582;28;20038;-72
2022/11/28 13:00:08;;;;;;;36.15;15.80;;;11.90;99.90;;;;;;5085098;28;20063;-73
2022/11/28 13:02:41;;;;;;;29.48;14.05;;;11.80;99.90;;;;;;5090700;28;20480;-73
2022/11/28 13:05:42;;;;;;;26.67;13.82;;;11.80;99.90;;;;;;5109372;22;20008;-76